Just Believe — WDE6179 — position and weather

sailwx.info

Track history (hours):
 
Tides and Currents Weather Stations Pressure Air Temp Water Temp Dewpoint Dewpoint Depression Visibility Wind Speed Wind Dir Waves Ship Positions

Just Believe

Owner: Just Believe LLC, Austin, TX. More information available from US FCC via Universal Licensing System and Coast Guard Vessel Documentation Center.

Last reported at 2014-Dec-20 18:33 UTC. Time now 2014-Dec-23 03:03 UTC.
Position N 26°32' W 082°00'.

Length 18 m; draft 2 m.

Type: Pleasure craft. MMSI: 367376980.

Date/timePositionNaut miles runAvg speedWind from/ knotsBaromVisibWave heightAir tempDewpointWater temp
2014-Dec-20 18:33N 26°32' W 082°00'7 6.6
2014-Dec-20 17:33N 26°25' W 081°58'3 2.5
2014-Dec-20 16:33N 26°23' W 081°57'4 3.9
2014-Dec-20 15:31N 26°27' W 081°59'2 1.9
2014-Dec-20 14:33N 26°28' W 082°00'4 4.3
2014-Dec-20 13:32N 26°32' W 081°60'0 0.0
2014-Dec-19 22:15N 26°32' W 081°60'0 0.0
2014-Dec-19 21:30N 26°32' W 081°60'0 0.0
2014-Dec-19 20:33N 26°32' W 081°60'  
Track history (hours):
 
Tides and Currents Weather Stations Pressure Air Temp Water Temp Dewpoint Dewpoint Depression Visibility Wind Speed Wind Dir Waves Ship Positions

Just Believe

Owner: Just Believe LLC, Austin, TX. More information available from US FCC via Universal Licensing System and Coast Guard Vessel Documentation Center.

Last reported at 2014-Dec-20 18:33 UTC. Time now 2014-Dec-23 03:03 UTC.
Position N 26°32' W 082°00'.

Length 18 m; draft 2 m.

Type: Pleasure craft. MMSI: 367376980.

Date/timePositionNaut miles runAvg speedWind from/ knotsBaromVisibWave heightAir tempDewpointWater temp
2014-Dec-20 18:33N 26°32' W 082°00'7 6.6
2014-Dec-20 17:33N 26°25' W 081°58'3 2.5
2014-Dec-20 16:33N 26°23' W 081°57'4 3.9
2014-Dec-20 15:31N 26°27' W 081°59'2 1.9
2014-Dec-20 14:33N 26°28' W 082°00'4 4.3
2014-Dec-20 13:32N 26°32' W 081°60'0 0.0
2014-Dec-19 22:15N 26°32' W 081°60'0 0.0
2014-Dec-19 21:30N 26°32' W 081°60'0 0.0
2014-Dec-19 20:33N 26°32' W 081°60'  

Dump ship's entire track history